Hattiesburg, MS

1:51 PM CDT on September 04, 2015 (GMT -0500)
Woodhaven | | Change Station
CLOSE
Current Station
Personal Weather Station
Location: Hattiesburg, MS
Elevation: 374 ft
Nearby Weather Stations

Elev 374 ft 31.28 °N, 89.35 °W | Updated 2 seconds ago

Partly Cloudy
Partly Cloudy
90.1 °F
Feels Like 94 °F
N
2.0
Wind Variable Wind from SE
Gusts 4.9 mph

Today
High -- | Low -- °F
--% Chance of Precip.
Yesterday
High -- | Low -- °F
Precip. -- in
6:34 AM 7:17 PM
Waning Gibbous, 57% visible
Pressure 29.99 in
Visibility 10.0 miles
Clouds Few 4800 ft
Heat Index 94 °F
Dew Point 68 °F
Humidity 49%
Rainfall 0.00 in
Snow Depth Not available.
UV 2.0 out of 12
Pollen 7.50 out of 12
Air Quality Not available.
Flu Activity Not available.
METAR KHBG 041753Z AUTO 00000KT 10SM FEW048 33/20 A3000 RMK AO2 SLP155 T03280200 10333 20228 58010
Pressure 29.99 in
Visibility 10.0 miles
Clouds Few 4800 ft
Heat Index 94 °F
Dew Point 68 °F
Humidity 49%
Rainfall 0.00 in
Snow Depth Not available.
UV 2.0 out of 12
Pollen 7.50 out of 12
Air Quality Not available.
Flu Activity Not available.
METAR KHBG 041753Z AUTO 00000KT 10SM FEW048 33/20 A3000 RMK AO2 SLP155 T03280200 10333 20228 58010

10-Day Weather Forecast

×

Almanac

Astronomy

Sep. 04, 2015 Rise Set
Actual Time
Civil Twilight
Nautical Twilight
Astronomical Twilight
Moon
Length of Visible Light
Length of Day
Tomorrow will be .
, % of the Moon is Illuminated

Today's Extremes

State Highs State Lows

Community

WunderPhotos

Upload Photos

1,852,262 photos uploaded!

WunderBlogs® & News

Nearby

Air Quality

  Air Quality AQ Index Pollutant
Not available.

Snow Depth

Station Depth Elevation

Earthquake Activity

City Distance Mag. Time & Date
Minimum magnitude displayed is 2.5.

Coastal Water Temperatures

Place Temperature

Stations

Nearby Weather Stations

Station Location Temp. Windchill Dew Point Humidity Wind Precip. Elev Updated Type